sensor_id;sensor_type;location;lat;lon;timestamp;pressure;altitude;pressure_sealevel;temperature;humidity
54512;BME280;40419;47.438;19.026;2022-09-17T00:01:25;99015.06;;;13.21;100.00
54512;BME280;40419;47.438;19.026;2022-09-17T00:03:57;99017.41;;;13.18;100.00
54512;BME280;40419;47.438;19.026;2022-09-17T00:06:29;99014.50;;;13.07;100.00
54512;BME280;40419;47.438;19.026;2022-09-17T00:08:54;99007.41;;;13.06;100.00
54512;BME280;40419;47.438;19.026;2022-09-17T00:11:27;99018.63;;;13.10;100.00
54512;BME280;40419;47.438;19.026;2022-09-17T00:13:54;99016.69;;;13.22;100.00
54512;BME280;40419;47.438;19.026;2022-09-17T00:16:28;99017.22;;;13.07;100.00
54512;BME280;40419;47.438;19.026;2022-09-17T00:18:56;99018.88;;;12.97;100.00
54512;BME280;40419;47.438;19.026;2022-09-17T00:21:25;99016.53;;;13.00;100.00
54512;BME280;40419;47.438;19.026;2022-09-17T00:23:58;99014.13;;;13.04;100.00
54512;BME280;40419;47.438;19.026;2022-09-17T00:26:26;99015.44;;;13.01;100.00
54512;BME280;40419;47.438;19.026;2022-09-17T00:28:57;99006.59;;;13.06;100.00
54512;BME280;40419;47.438;19.026;2022-09-17T00:31:24;99008.91;;;13.26;100.00
54512;BME280;40419;47.438;19.026;2022-09-17T00:33:53;99007.03;;;13.15;100.00
54512;BME280;40419;47.438;19.026;2022-09-17T00:36:21;99011.88;;;13.12;100.00
54512;BME280;40419;47.438;19.026;2022-09-17T00:38:56;98999.22;;;13.18;100.00
54512;BME280;40419;47.438;19.026;2022-09-17T00:41:28;98995.66;;;13.18;100.00
54512;BME280;40419;47.438;19.026;2022-09-17T00:43:56;98985.50;;;13.25;100.00
54512;BME280;40419;47.438;19.026;2022-09-17T00:46:42;98970.34;;;13.00;100.00
54512;BME280;40419;47.438;19.026;2022-09-17T00:49:15;98981.66;;;13.09;100.00
54512;BME280;40419;47.438;19.026;2022-09-17T00:52:05;98979.97;;;13.20;100.00
54512;BME280;40419;47.438;19.026;2022-09-17T00:54:34;98969.59;;;13.05;100.00
54512;BME280;40419;47.438;19.026;2022-09-17T00:57:01;98974.31;;;13.09;100.00
54512;BME280;40419;47.438;19.026;2022-09-17T00:59:29;98975.63;;;13.07;100.00
54512;BME280;40419;47.438;19.026;2022-09-17T01:01:57;98971.28;;;13.06;100.00
54512;BME280;40419;47.438;19.026;2022-09-17T01:04:27;98964.03;;;13.11;100.00
54512;BME280;40419;47.438;19.026;2022-09-17T01:07:18;98966.69;;;13.23;100.00
54512;BME280;40419;47.438;19.026;2022-09-17T01:10:07;98958.88;;;13.27;100.00
54512;BME280;40419;47.438;19.026;2022-09-17T01:45:48;99000.47;;;12.87;100.00
54512;BME280;40419;47.438;19.026;2022-09-17T01:48:19;99000.56;;;12.92;100.00
54512;BME280;40419;47.438;19.026;2022-09-17T01:51:13;99001.91;;;12.89;100.00
54512;BME280;40419;47.438;19.026;2022-09-17T01:54:02;98997.75;;;12.87;100.00
54512;BME280;40419;47.438;19.026;2022-09-17T01:56:35;99000.81;;;12.90;100.00
54512;BME280;40419;47.438;19.026;2022-09-17T01:59:11;98999.97;;;13.02;100.00
54512;BME280;40419;47.438;19.026;2022-09-17T02:01:49;98996.81;;;12.93;100.00
54512;BME280;40419;47.438;19.026;2022-09-17T02:04:29;98995.75;;;12.82;100.00
54512;BME280;40419;47.438;19.026;2022-09-17T02:07:06;98989.28;;;12.71;100.00
54512;BME280;40419;47.438;19.026;2022-09-17T02:09:45;98982.44;;;12.69;100.00
54512;BME280;40419;47.438;19.026;2022-09-17T02:12:19;98979.25;;;12.72;100.00
54512;BME280;40419;47.438;19.026;2022-09-17T02:14:52;98982.78;;;12.72;100.00
54512;BME280;40419;47.438;19.026;2022-09-17T02:19:48;98979.38;;;12.65;100.00
54512;BME280;40419;47.438;19.026;2022-09-17T02:22:38;98977.72;;;12.76;100.00
54512;BME280;40419;47.438;19.026;2022-09-17T02:27:58;98973.66;;;12.79;100.00
54512;BME280;40419;47.438;19.026;2022-09-17T02:30:33;98973.31;;;12.75;100.00
54512;BME280;40419;47.438;19.026;2022-09-17T02:33:03;98970.63;;;12.75;100.00
54512;BME280;40419;47.438;19.026;2022-09-17T02:35:33;98963.66;;;12.79;100.00
54512;BME280;40419;47.438;19.026;2022-09-17T02:37:59;98962.47;;;12.75;100.00
54512;BME280;40419;47.438;19.026;2022-09-17T02:40:35;98963.97;;;12.83;100.00
54512;BME280;40419;47.438;19.026;2022-09-17T02:48:45;98941.59;;;12.64;100.00
54512;BME280;40419;47.438;19.026;2022-09-17T02:51:32;98933.47;;;12.40;100.00
54512;BME280;40419;47.438;19.026;2022-09-17T02:57:06;98925.34;;;12.40;100.00
54512;BME280;40419;47.438;19.026;2022-09-17T03:02:31;98920.84;;;12.34;100.00
54512;BME280;40419;47.438;19.026;2022-09-17T03:05:03;98914.22;;;12.53;100.00
54512;BME280;40419;47.438;19.026;2022-09-17T03:07:29;98917.19;;;12.40;100.00
54512;BME280;40419;47.438;19.026;2022-09-17T03:09:59;98912.47;;;12.35;100.00
54512;BME280;40419;47.438;19.026;2022-09-17T03:12:25;98912.59;;;12.29;100.00
54512;BME280;40419;47.438;19.026;2022-09-17T03:14:51;98900.78;;;12.35;100.00
54512;BME280;40419;47.438;19.026;2022-09-17T03:17:17;98902.56;;;12.29;100.00
54512;BME280;40419;47.438;19.026;2022-09-17T03:19:45;98896.91;;;12.43;100.00
54512;BME280;40419;47.438;19.026;2022-09-17T03:22:10;98874.22;;;12.37;100.00
54512;BME280;40419;47.438;19.026;2022-09-17T03:24:36;98860.50;;;12.55;100.00
54512;BME280;40419;47.438;19.026;2022-09-17T03:27:02;98855.50;;;12.64;100.00
54512;BME280;40419;47.438;19.026;2022-09-17T03:29:28;98862.63;;;12.53;100.00
54512;BME280;40419;47.438;19.026;2022-09-17T03:31:53;98858.41;;;12.46;100.00
54512;BME280;40419;47.438;19.026;2022-09-17T03:34:18;98843.50;;;12.48;100.00
54512;BME280;40419;47.438;19.026;2022-09-17T03:36:47;98835.13;;;12.50;100.00
54512;BME280;40419;47.438;19.026;2022-09-17T03:39:17;98841.88;;;12.47;100.00
54512;BME280;40419;47.438;19.026;2022-09-17T03:41:45;98838.22;;;12.41;100.00
54512;BME280;40419;47.438;19.026;2022-09-17T03:44:13;98835.59;;;12.47;100.00
54512;BME280;40419;47.438;19.026;2022-09-17T03:46:43;98836.06;;;12.55;100.00
54512;BME280;40419;47.438;19.026;2022-09-17T03:49:10;98835.03;;;12.45;100.00
54512;BME280;40419;47.438;19.026;2022-09-17T03:51:36;98821.16;;;12.29;100.00
54512;BME280;40419;47.438;19.026;2022-09-17T03:54:02;98819.47;;;12.40;100.00
54512;BME280;40419;47.438;19.026;2022-09-17T03:56:27;98832.91;;;12.35;100.00
54512;BME280;40419;47.438;19.026;2022-09-17T03:58:58;98841.47;;;12.03;100.00
54512;BME280;40419;47.438;19.026;2022-09-17T04:01:27;98840.41;;;12.16;100.00
54512;BME280;40419;47.438;19.026;2022-09-17T04:03:55;98852.91;;;12.05;100.00
54512;BME280;40419;47.438;19.026;2022-09-17T04:06:26;98854.69;;;12.11;100.00
54512;BME280;40419;47.438;19.026;2022-09-17T04:08:56;98851.50;;;12.14;100.00
54512;BME280;40419;47.438;19.026;2022-09-17T04:11:22;98856.22;;;11.95;100.00
54512;BME280;40419;47.438;19.026;2022-09-17T04:13:53;98859.06;;;12.00;100.00
54512;BME280;40419;47.438;19.026;2022-09-17T04:16:18;98853.84;;;12.11;100.00
54512;BME280;40419;47.438;19.026;2022-09-17T04:18:46;98858.44;;;12.10;100.00
54512;BME280;40419;47.438;19.026;2022-09-17T04:21:14;98849.03;;;12.01;100.00
54512;BME280;40419;47.438;19.026;2022-09-17T04:23:39;98840.03;;;12.12;100.00
54512;BME280;40419;47.438;19.026;2022-09-17T04:26:07;98845.03;;;12.03;100.00
54512;BME280;40419;47.438;19.026;2022-09-17T04:28:35;98846.53;;;12.11;100.00
54512;BME280;40419;47.438;19.026;2022-09-17T04:31:02;98848.78;;;12.14;100.00
54512;BME280;40419;47.438;19.026;2022-09-17T04:33:35;98841.81;;;12.07;100.00
54512;BME280;40419;47.438;19.026;2022-09-17T04:36:02;98840.00;;;12.36;100.00
54512;BME280;40419;47.438;19.026;2022-09-17T04:38:27;98839.31;;;12.29;100.00
54512;BME280;40419;47.438;19.026;2022-09-17T04:40:55;98829.31;;;12.17;100.00
54512;BME280;40419;47.438;19.026;2022-09-17T04:43:23;98822.94;;;12.12;100.00
54512;BME280;40419;47.438;19.026;2022-09-17T04:45:51;98819.88;;;12.20;100.00
54512;BME280;40419;47.438;19.026;2022-09-17T04:48:19;98825.97;;;12.27;100.00
54512;BME280;40419;47.438;19.026;2022-09-17T04:50:50;98831.22;;;12.17;100.00
54512;BME280;40419;47.438;19.026;2022-09-17T04:53:18;98812.81;;;12.07;100.00
54512;BME280;40419;47.438;19.026;2022-09-17T04:55:46;98813.50;;;12.26;100.00
54512;BME280;40419;47.438;19.026;2022-09-17T04:58:12;98834.34;;;12.37;100.00
54512;BME280;40419;47.438;19.026;2022-09-17T05:00:40;98835.44;;;12.25;100.00
54512;BME280;40419;47.438;19.026;2022-09-17T05:03:06;98834.13;;;12.27;100.00
54512;BME280;40419;47.438;19.026;2022-09-17T05:05:32;98824.00;;;12.11;100.00
54512;BME280;40419;47.438;19.026;2022-09-17T05:07:57;98849.88;;;12.54;100.00
54512;BME280;40419;47.438;19.026;2022-09-17T05:10:25;98827.03;;;12.38;100.00
54512;BME280;40419;47.438;19.026;2022-09-17T05:12:56;98821.75;;;12.60;96.74
54512;BME280;40419;47.438;19.026;2022-09-17T05:15:23;98832.75;;;12.65;99.90
54512;BME280;40419;47.438;19.026;2022-09-17T05:17:49;98846.31;;;12.65;99.44
54512;BME280;40419;47.438;19.026;2022-09-17T05:20:15;98850.09;;;12.64;97.63
54512;BME280;40419;47.438;19.026;2022-09-17T05:22:46;98852.81;;;12.64;95.89
54512;BME280;40419;47.438;19.026;2022-09-17T05:25:13;98852.00;;;12.64;99.06
54512;BME280;40419;47.438;19.026;2022-09-17T05:27:42;98856.81;;;12.62;99.64
54512;BME280;40419;47.438;19.026;2022-09-17T05:30:08;98864.00;;;12.68;100.00
54512;BME280;40419;47.438;19.026;2022-09-17T05:32:39;98861.06;;;12.57;98.72
54512;BME280;40419;47.438;19.026;2022-09-17T05:35:08;98862.59;;;12.65;99.87
54512;BME280;40419;47.438;19.026;2022-09-17T05:37:38;98865.91;;;12.67;100.00
54512;BME280;40419;47.438;19.026;2022-09-17T05:40:09;98865.94;;;12.84;93.15
54512;BME280;40419;47.438;19.026;2022-09-17T05:42:37;98872.03;;;13.03;88.57
54512;BME280;40419;47.438;19.026;2022-09-17T05:45:03;98868.22;;;13.04;91.60
54512;BME280;40419;47.438;19.026;2022-09-17T05:47:31;98882.16;;;13.08;89.59
54512;BME280;40419;47.438;19.026;2022-09-17T05:49:59;98888.91;;;13.34;86.17
54512;BME280;40419;47.438;19.026;2022-09-17T05:52:27;98890.03;;;13.21;88.60
54512;BME280;40419;47.438;19.026;2022-09-17T05:54:55;98891.81;;;13.16;90.49
54512;BME280;40419;47.438;19.026;2022-09-17T05:57:28;98871.72;;;13.17;86.57
54512;BME280;40419;47.438;19.026;2022-09-17T05:59:54;98902.25;;;13.07;90.78
54512;BME280;40419;47.438;19.026;2022-09-17T06:02:21;98909.56;;;12.77;94.54
54512;BME280;40419;47.438;19.026;2022-09-17T06:04:49;98907.94;;;12.65;97.46
54512;BME280;40419;47.438;19.026;2022-09-17T06:07:17;98908.16;;;12.63;100.00
54512;BME280;40419;47.438;19.026;2022-09-17T06:09:43;98903.59;;;12.64;100.00
54512;BME280;40419;47.438;19.026;2022-09-17T06:12:11;98909.44;;;12.72;99.48
54512;BME280;40419;47.438;19.026;2022-09-17T06:14:36;98894.81;;;12.62;100.00
54512;BME280;40419;47.438;19.026;2022-09-17T06:17:04;98880.22;;;12.51;100.00
54512;BME280;40419;47.438;19.026;2022-09-17T06:19:29;98868.66;;;12.44;100.00
54512;BME280;40419;47.438;19.026;2022-09-17T06:21:55;98869.94;;;12.53;100.00
54512;BME280;40419;47.438;19.026;2022-09-17T06:24:25;98887.56;;;12.38;100.00
54512;BME280;40419;47.438;19.026;2022-09-17T06:26:55;98883.44;;;12.36;100.00
54512;BME280;40419;47.438;19.026;2022-09-17T06:29:23;98882.94;;;12.51;100.00
54512;BME280;40419;47.438;19.026;2022-09-17T06:31:51;98886.47;;;12.51;100.00
54512;BME280;40419;47.438;19.026;2022-09-17T06:34:19;98887.66;;;12.55;100.00
54512;BME280;40419;47.438;19.026;2022-09-17T06:36:52;98884.94;;;12.44;100.00
54512;BME280;40419;47.438;19.026;2022-09-17T06:39:23;98886.59;;;12.45;100.00
54512;BME280;40419;47.438;19.026;2022-09-17T06:41:53;98886.75;;;12.38;100.00
54512;BME280;40419;47.438;19.026;2022-09-17T06:44:22;98890.28;;;12.27;100.00
54512;BME280;40419;47.438;19.026;2022-09-17T06:46:52;98887.31;;;12.40;100.00
54512;BME280;40419;47.438;19.026;2022-09-17T06:49:20;98901.72;;;12.29;100.00
54512;BME280;40419;47.438;19.026;2022-09-17T06:51:46;98907.88;;;12.24;100.00
54512;BME280;40419;47.438;19.026;2022-09-17T06:54:14;98920.50;;;12.18;100.00
54512;BME280;40419;47.438;19.026;2022-09-17T06:56:45;98916.72;;;12.31;100.00
54512;BME280;40419;47.438;19.026;2022-09-17T06:59:13;98921.44;;;12.24;100.00
54512;BME280;40419;47.438;19.026;2022-09-17T07:01:41;98914.13;;;12.25;100.00
54512;BME280;40419;47.438;19.026;2022-09-17T07:04:11;98915.78;;;12.26;100.00
54512;BME280;40419;47.438;19.026;2022-09-17T07:06:45;98913.53;;;12.34;100.00
54512;BME280;40419;47.438;19.026;2022-09-17T07:09:11;98909.03;;;12.40;100.00
54512;BME280;40419;47.438;19.026;2022-09-17T07:11:41;98924.03;;;12.31;100.00
54512;BME280;40419;47.438;19.026;2022-09-17T07:14:09;98930.28;;;12.31;100.00
54512;BME280;40419;47.438;19.026;2022-09-17T07:16:34;98927.91;;;12.35;100.00
54512;BME280;40419;47.438;19.026;2022-09-17T07:19:02;98922.03;;;12.26;100.00
54512;BME280;40419;47.438;19.026;2022-09-17T07:21:31;98902.81;;;12.39;100.00
54512;BME280;40419;47.438;19.026;2022-09-17T07:23:57;98913.53;;;12.46;100.00
54512;BME280;40419;47.438;19.026;2022-09-17T07:26:25;98919.19;;;12.56;100.00
54512;BME280;40419;47.438;19.026;2022-09-17T07:28:57;98922.66;;;12.81;100.00
54512;BME280;40419;47.438;19.026;2022-09-17T07:31:23;98915.31;;;12.81;100.00
54512;BME280;40419;47.438;19.026;2022-09-17T07:33:53;98917.63;;;13.01;100.00
54512;BME280;40419;47.438;19.026;2022-09-17T07:36:25;98916.03;;;12.88;100.00
54512;BME280;40419;47.438;19.026;2022-09-17T07:38:53;98915.78;;;12.90;100.00
54512;BME280;40419;47.438;19.026;2022-09-17T07:41:23;98915.78;;;12.90;100.00
54512;BME280;40419;47.438;19.026;2022-09-17T07:43:51;98929.63;;;13.17;100.00
54512;BME280;40419;47.438;19.026;2022-09-17T07:46:22;98932.25;;;13.12;99.33
54512;BME280;40419;47.438;19.026;2022-09-17T07:48:52;98931.09;;;13.08;98.98
54512;BME280;40419;47.438;19.026;2022-09-17T07:51:25;98938.25;;;13.14;100.00
54512;BME280;40419;47.438;19.026;2022-09-17T07:53:55;98933.75;;;13.20;98.08
54512;BME280;40419;47.438;19.026;2022-09-17T07:56:25;98920.78;;;13.10;96.38
54512;BME280;40419;47.438;19.026;2022-09-17T07:58:51;98914.63;;;13.15;97.25
54512;BME280;40419;47.438;19.026;2022-09-17T08:01:22;98915.63;;;13.25;96.25
54512;BME280;40419;47.438;19.026;2022-09-17T08:03:52;98921.78;;;13.21;97.42
54512;BME280;40419;47.438;19.026;2022-09-17T08:06:24;98925.44;;;13.26;97.27
54512;BME280;40419;47.438;19.026;2022-09-17T08:08:52;98945.47;;;13.49;96.74
54512;BME280;40419;47.438;19.026;2022-09-17T08:11:25;98955.03;;;13.52;93.92
54512;BME280;40419;47.438;19.026;2022-09-17T08:13:52;98966.03;;;13.45;96.12
54512;BME280;40419;47.438;19.026;2022-09-17T08:16:21;98966.25;;;13.55;94.98
54512;BME280;40419;47.438;19.026;2022-09-17T08:18:48;98970.22;;;13.64;94.77
54512;BME280;40419;47.438;19.026;2022-09-17T08:21:21;98971.72;;;13.43;92.92
54512;BME280;40419;47.438;19.026;2022-09-17T08:23:50;98968.28;;;13.48;95.51
54512;BME280;40419;47.438;19.026;2022-09-17T08:26:17;98959.41;;;13.53;96.46
54512;BME280;40419;47.438;19.026;2022-09-17T08:28:53;98958.84;;;13.68;95.48
54512;BME280;40419;47.438;19.026;2022-09-17T08:31:24;98966.94;;;13.79;95.99
54512;BME280;40419;47.438;19.026;2022-09-17T08:33:52;98966.84;;;13.57;96.49
54512;BME280;40419;47.438;19.026;2022-09-17T08:36:20;98969.13;;;13.49;96.17
54512;BME280;40419;47.438;19.026;2022-09-17T08:38:54;98970.81;;;13.38;94.89
54512;BME280;40419;47.438;19.026;2022-09-17T08:44:26;98965.44;;;13.72;93.82
54512;BME280;40419;47.438;19.026;2022-09-17T08:47:00;98947.38;;;13.65;92.21
54512;BME280;40419;47.438;19.026;2022-09-17T08:50:02;98948.19;;;13.49;95.21
54512;BME280;40419;47.438;19.026;2022-09-17T08:52:51;98944.22;;;13.28;94.84
54512;BME280;40419;47.438;19.026;2022-09-17T09:00:26;98952.38;;;13.28;94.84
54512;BME280;40419;47.438;19.026;2022-09-17T09:03:13;98961.84;;;13.25;95.96
54512;BME280;40419;47.438;19.026;2022-09-17T09:05:51;98976.25;;;13.38;96.29
54512;BME280;40419;47.438;19.026;2022-09-17T09:08:30;98976.59;;;13.41;92.55
54512;BME280;40419;47.438;19.026;2022-09-17T09:11:04;98975.97;;;13.10;95.82
54512;BME280;40419;47.438;19.026;2022-09-17T09:13:43;98977.63;;;13.00;94.82
54512;BME280;40419;47.438;19.026;2022-09-17T09:16:37;98974.81;;;13.06;94.70
54512;BME280;40419;47.438;19.026;2022-09-17T09:19:27;98975.38;;;13.08;96.06
54512;BME280;40419;47.438;19.026;2022-09-17T09:25:22;98975.78;;;13.29;93.06
54512;BME280;40419;47.438;19.026;2022-09-17T09:31:26;98973.88;;;13.29;95.39
54512;BME280;40419;47.438;19.026;2022-09-17T09:33:30;98967.38;;;13.42;92.09
54512;BME280;40419;47.438;19.026;2022-09-17T09:36:00;98962.28;;;13.63;91.15
54512;BME280;40419;47.438;19.026;2022-09-17T09:38:42;98957.97;;;13.79;91.00
54512;BME280;40419;47.438;19.026;2022-09-17T09:43:44;98974.72;;;13.88;91.18
54512;BME280;40419;47.438;19.026;2022-09-17T09:58:09;98982.13;;;13.75;90.03
54512;BME280;40419;47.438;19.026;2022-09-17T10:00:42;98983.44;;;13.90;89.58
54512;BME280;40419;47.438;19.026;2022-09-17T10:03:18;98986.91;;;13.85;90.04
54512;BME280;40419;47.438;19.026;2022-09-17T10:06:04;98978.81;;;13.73;91.26
54512;BME280;40419;47.438;19.026;2022-09-17T10:08:33;98962.16;;;13.87;91.34
54512;BME280;40419;47.438;19.026;2022-09-17T10:13:39;98945.53;;;13.83;92.71
54512;BME280;40419;47.438;19.026;2022-09-17T10:16:24;98950.78;;;13.90;88.18
54512;BME280;40419;47.438;19.026;2022-09-17T10:21:34;98967.56;;;13.53;88.18
54512;BME280;40419;47.438;19.026;2022-09-17T10:24:05;98940.28;;;13.47;85.45
54512;BME280;40419;47.438;19.026;2022-09-17T10:26:39;98927.28;;;13.67;89.19
54512;BME280;40419;47.438;19.026;2022-09-17T10:29:11;98913.94;;;13.65;83.64
54512;BME280;40419;47.438;19.026;2022-09-17T10:34:26;98897.94;;;13.86;85.53
54512;BME280;40419;47.438;19.026;2022-09-17T10:36:53;98918.88;;;13.68;86.54
54512;BME280;40419;47.438;19.026;2022-09-17T10:42:14;98928.34;;;13.82;86.38
54512;BME280;40419;47.438;19.026;2022-09-17T10:44:52;98916.66;;;13.65;84.32
54512;BME280;40419;47.438;19.026;2022-09-17T10:47:32;98906.03;;;13.80;87.82
54512;BME280;40419;47.438;19.026;2022-09-17T10:52:37;98878.00;;;13.80;84.67
54512;BME280;40419;47.438;19.026;2022-09-17T11:11:10;98900.75;;;13.91;72.43
54512;BME280;40419;47.438;19.026;2022-09-17T11:22:17;98883.09;;;13.59;71.07
54512;BME280;40419;47.438;19.026;2022-09-17T11:33:49;98912.59;;;13.68;72.83
54512;BME280;40419;47.438;19.026;2022-09-17T11:36:25;98881.50;;;13.46;72.87
54512;BME280;40419;47.438;19.026;2022-09-17T11:38:56;98883.59;;;13.73;72.76
54512;BME280;40419;47.438;19.026;2022-09-17T11:41:34;98879.81;;;13.74;73.92
54512;BME280;40419;47.438;19.026;2022-09-17T11:46:44;98861.50;;;13.87;74.44
54512;BME280;40419;47.438;19.026;2022-09-17T11:51:46;98837.66;;;13.94;72.99
54512;BME280;40419;47.438;19.026;2022-09-17T11:54:49;98835.13;;;13.70;74.21
54512;BME280;40419;47.438;19.026;2022-09-17T11:57:32;98829.63;;;13.65;74.81
54512;BME280;40419;47.438;19.026;2022-09-17T12:07:59;98761.78;;;13.75;73.12
54512;BME280;40419;47.438;19.026;2022-09-17T12:16:05;98769.03;;;13.70;70.88
54512;BME280;40419;47.438;19.026;2022-09-17T12:18:45;98759.56;;;13.55;73.34
54512;BME280;40419;47.438;19.026;2022-09-17T12:21:17;98755.09;;;13.66;71.37
54512;BME280;40419;47.438;19.026;2022-09-17T12:32:28;98723.81;;;13.12;75.30
54512;BME280;40419;47.438;19.026;2022-09-17T12:46:12;98718.25;;;13.75;70.41
54512;BME280;40419;47.438;19.026;2022-09-17T12:51:50;98741.38;;;13.78;73.11
54512;BME280;40419;47.438;19.026;2022-09-17T13:00:09;98734.34;;;13.60;74.40
54512;BME280;40419;47.438;19.026;2022-09-17T13:14:05;98741.34;;;13.22;74.11
54512;BME280;40419;47.438;19.026;2022-09-17T13:16:44;98721.28;;;13.06;78.04
54512;BME280;40419;47.438;19.026;2022-09-17T13:19:38;98725.03;;;13.22;78.99
54512;BME280;40419;47.438;19.026;2022-09-17T13:22:16;98738.06;;;13.20;77.02
54512;BME280;40419;47.438;19.026;2022-09-17T13:24:45;98737.59;;;13.40;77.23
54512;BME280;40419;47.438;19.026;2022-09-17T13:27:23;98719.91;;;13.25;76.87
54512;BME280;40419;47.438;19.026;2022-09-17T13:37:55;98700.75;;;12.98;78.37
54512;BME280;40419;47.438;19.026;2022-09-17T13:40:35;98706.53;;;13.02;78.41
54512;BME280;40419;47.438;19.026;2022-09-17T13:45:31;98707.84;;;12.99;78.51
54512;BME280;40419;47.438;19.026;2022-09-17T13:48:04;98714.94;;;13.00;79.60
54512;BME280;40419;47.438;19.026;2022-09-17T13:55:52;98700.84;;;12.86;81.05
54512;BME280;40419;47.438;19.026;2022-09-17T14:21:43;98741.84;;;13.02;79.57
54512;BME280;40419;47.438;19.026;2022-09-17T14:24:22;98745.38;;;12.85;79.18
54512;BME280;40419;47.438;19.026;2022-09-17T14:27:11;98751.63;;;13.03;81.00
54512;BME280;40419;47.438;19.026;2022-09-17T14:35:12;98769.25;;;12.83;82.73
54512;BME280;40419;47.438;19.026;2022-09-17T14:37:42;98776.34;;;12.72;82.07
54512;BME280;40419;47.438;19.026;2022-09-17T14:40:14;98767.22;;;12.62;80.65
54512;BME280;40419;47.438;19.026;2022-09-17T14:42:41;98780.28;;;12.65;80.79
54512;BME280;40419;47.438;19.026;2022-09-17T14:45:21;98770.75;;;12.62;81.77
54512;BME280;40419;47.438;19.026;2022-09-17T14:47:50;98774.38;;;12.68;80.60
54512;BME280;40419;47.438;19.026;2022-09-17T14:50:33;98764.72;;;12.60;80.64
54512;BME280;40419;47.438;19.026;2022-09-17T14:53:06;98762.06;;;12.48;80.93
54512;BME280;40419;47.438;19.026;2022-09-17T14:55:32;98738.13;;;12.45;79.45
54512;BME280;40419;47.438;19.026;2022-09-17T14:58:02;98751.06;;;12.55;80.18
54512;BME280;40419;47.438;19.026;2022-09-17T15:00:34;98757.47;;;12.49;80.84
54512;BME280;40419;47.438;19.026;2022-09-17T15:03:02;98757.03;;;12.69;78.16
54512;BME280;40419;47.438;19.026;2022-09-17T15:05:33;98769.91;;;12.62;78.70
54512;BME280;40419;47.438;19.026;2022-09-17T15:10:35;98772.19;;;12.53;77.78
54512;BME280;40419;47.438;19.026;2022-09-17T15:13:01;98770.31;;;12.53;77.62
54512;BME280;40419;47.438;19.026;2022-09-17T15:15:29;98765.38;;;12.50;77.73
54512;BME280;40419;47.438;19.026;2022-09-17T15:17:57;98761.50;;;12.46;80.15
54512;BME280;40419;47.438;19.026;2022-09-17T15:20:27;98755.13;;;12.40;79.52
54512;BME280;40419;47.438;19.026;2022-09-17T15:23:06;98744.47;;;12.51;82.63
54512;BME280;40419;47.438;19.026;2022-09-17T15:25:37;98742.81;;;12.50;79.71
54512;BME280;40419;47.438;19.026;2022-09-17T15:28:23;98726.28;;;12.22;78.44
54512;BME280;40419;47.438;19.026;2022-09-17T15:30:51;98721.47;;;12.25;78.43
54512;BME280;40419;47.438;19.026;2022-09-17T15:33:19;98709.34;;;12.44;78.84
54512;BME280;40419;47.438;19.026;2022-09-17T15:36:20;98705.66;;;12.21;81.01
54512;BME280;40419;47.438;19.026;2022-09-17T15:38:46;98711.19;;;12.27;79.11
54512;BME280;40419;47.438;19.026;2022-09-17T15:41:39;98709.78;;;12.12;79.67
54512;BME280;40419;47.438;19.026;2022-09-17T15:44:22;98709.59;;;12.43;79.47
54512;BME280;40419;47.438;19.026;2022-09-17T15:46:53;98706.13;;;12.47;78.41
54512;BME280;40419;47.438;19.026;2022-09-17T15:49:31;98700.16;;;12.33;79.32
54512;BME280;40419;47.438;19.026;2022-09-17T15:52:25;98689.78;;;12.30;80.32
54512;BME280;40419;47.438;19.026;2022-09-17T15:54:57;98696.06;;;12.31;79.65
54512;BME280;40419;47.438;19.026;2022-09-17T15:57:28;98707.88;;;12.25;80.51
54512;BME280;40419;47.438;19.026;2022-09-17T16:00:06;98706.56;;;12.27;82.13
54512;BME280;40419;47.438;19.026;2022-09-17T16:02:37;98704.41;;;12.41;80.81
54512;BME280;40419;47.438;19.026;2022-09-17T16:07:39;98712.16;;;12.20;82.36
54512;BME280;40419;47.438;19.026;2022-09-17T16:10:05;98700.97;;;12.17;81.84
54512;BME280;40419;47.438;19.026;2022-09-17T16:12:31;98699.44;;;12.09;81.90
54512;BME280;40419;47.438;19.026;2022-09-17T16:14:59;98702.59;;;12.18;82.11
54512;BME280;40419;47.438;19.026;2022-09-17T16:17:48;98693.72;;;12.22;81.44
54512;BME280;40419;47.438;19.026;2022-09-17T16:20:18;98687.31;;;12.00;82.69
54512;BME280;40419;47.438;19.026;2022-09-17T16:22:49;98679.06;;;12.07;81.82
54512;BME280;40419;47.438;19.026;2022-09-17T16:25:26;98682.41;;;12.14;80.10
54512;BME280;40419;47.438;19.026;2022-09-17T16:30:23;98695.13;;;12.25;80.35
54512;BME280;40419;47.438;19.026;2022-09-17T16:32:51;98688.78;;;12.19;82.17
54512;BME280;40419;47.438;19.026;2022-09-17T16:35:20;98682.72;;;12.29;81.81
54512;BME280;40419;47.438;19.026;2022-09-17T16:37:53;98693.72;;;12.22;82.11
54512;BME280;40419;47.438;19.026;2022-09-17T16:40:22;98681.75;;;12.07;83.50
54512;BME280;40419;47.438;19.026;2022-09-17T16:42:51;98692.22;;;12.15;82.85
54512;BME280;40419;47.438;19.026;2022-09-17T16:45:16;98690.56;;;12.14;82.78
54512;BME280;40419;47.438;19.026;2022-09-17T16:47:47;98686.50;;;11.99;85.14
54512;BME280;40419;47.438;19.026;2022-09-17T16:50:16;98711.63;;;11.83;87.81
54512;BME280;40419;47.438;19.026;2022-09-17T16:52:46;98692.25;;;11.91;88.08
54512;BME280;40419;47.438;19.026;2022-09-17T16:55:17;98697.97;;;11.78;90.53
54512;BME280;40419;47.438;19.026;2022-09-17T16:57:45;98695.44;;;11.88;86.75
54512;BME280;40419;47.438;19.026;2022-09-17T17:00:13;98691.13;;;11.75;89.71
54512;BME280;40419;47.438;19.026;2022-09-17T17:02:49;98708.09;;;11.82;88.51
54512;BME280;40419;47.438;19.026;2022-09-17T17:05:17;98706.53;;;11.86;88.74